sensor_id;sensor_type;location;lat;lon;timestamp;temperature;humidity
56256;DHT22;57229;51.432;-2.598;2022-09-21T00:00:38;18.00;91.80
56256;DHT22;57229;51.432;-2.598;2022-09-21T00:03:05;18.00;91.80
56256;DHT22;57229;51.432;-2.598;2022-09-21T00:05:32;18.00;91.80
56256;DHT22;57229;51.432;-2.598;2022-09-21T00:08:00;18.00;91.80
56256;DHT22;57229;51.432;-2.598;2022-09-21T00:10:27;18.00;91.80
56256;DHT22;57229;51.432;-2.598;2022-09-21T00:12:54;18.00;91.90
56256;DHT22;57229;51.432;-2.598;2022-09-21T00:15:21;18.00;91.90
56256;DHT22;57229;51.432;-2.598;2022-09-21T00:17:47;18.00;91.90
56256;DHT22;57229;51.432;-2.598;2022-09-21T00:20:16;18.00;91.90
56256;DHT22;57229;51.432;-2.598;2022-09-21T00:22:42;18.00;91.90
56256;DHT22;57229;51.432;-2.598;2022-09-21T00:25:08;18.00;91.90
56256;DHT22;57229;51.432;-2.598;2022-09-21T00:27:34;18.00;91.90
56256;DHT22;57229;51.432;-2.598;2022-09-21T00:30:00;18.00;91.90
56256;DHT22;57229;51.432;-2.598;2022-09-21T00:32:30;18.00;91.90
56256;DHT22;57229;51.432;-2.598;2022-09-21T00:34:57;18.00;91.90
56256;DHT22;57229;51.432;-2.598;2022-09-21T00:37:23;17.50;91.80
56256;DHT22;57229;51.432;-2.598;2022-09-21T00:39:49;17.90;92.00
56256;DHT22;57229;51.432;-2.598;2022-09-21T00:42:21;17.70;91.90
56256;DHT22;57229;51.432;-2.598;2022-09-21T00:44:47;17.90;91.90
56256;DHT22;57229;51.432;-2.598;2022-09-21T00:47:16;17.90;92.00
56256;DHT22;57229;51.432;-2.598;2022-09-21T00:49:44;17.90;92.00
56256;DHT22;57229;51.432;-2.598;2022-09-21T00:52:13;17.90;92.00
56256;DHT22;57229;51.432;-2.598;2022-09-21T00:54:49;17.90;92.00
56256;DHT22;57229;51.432;-2.598;2022-09-21T00:57:18;17.90;92.00
56256;DHT22;57229;51.432;-2.598;2022-09-21T00:59:49;17.90;92.00
56256;DHT22;57229;51.432;-2.598;2022-09-21T01:02:17;18.00;92.10
56256;DHT22;57229;51.432;-2.598;2022-09-21T01:04:43;17.90;92.10
56256;DHT22;57229;51.432;-2.598;2022-09-21T01:07:13;17.90;92.10
56256;DHT22;57229;51.432;-2.598;2022-09-21T01:09:43;17.90;92.20
56256;DHT22;57229;51.432;-2.598;2022-09-21T01:12:36;17.90;92.20
56256;DHT22;57229;51.432;-2.598;2022-09-21T01:21:15;17.90;92.20
56256;DHT22;57229;51.432;-2.598;2022-09-21T01:32:03;17.90;92.60
56256;DHT22;57229;51.432;-2.598;2022-09-21T01:34:44;17.90;92.60
56256;DHT22;57229;51.432;-2.598;2022-09-21T01:37:18;17.90;92.70
56256;DHT22;57229;51.432;-2.598;2022-09-21T01:39:49;17.90;92.70
56256;DHT22;57229;51.432;-2.598;2022-09-21T01:42:17;17.20;92.50
56256;DHT22;57229;51.432;-2.598;2022-09-21T01:44:44;17.90;92.60
56256;DHT22;57229;51.432;-2.598;2022-09-21T01:47:12;17.90;92.70
56256;DHT22;57229;51.432;-2.598;2022-09-21T01:49:48;17.90;92.60
56256;DHT22;57229;51.432;-2.598;2022-09-21T01:52:23;18.00;92.80
56256;DHT22;57229;51.432;-2.598;2022-09-21T01:54:57;17.90;92.70
56256;DHT22;57229;51.432;-2.598;2022-09-21T01:57:39;18.00;92.70
56256;DHT22;57229;51.432;-2.598;2022-09-21T02:00:07;18.00;92.70
56256;DHT22;57229;51.432;-2.598;2022-09-21T02:02:47;18.00;92.70
56256;DHT22;57229;51.432;-2.598;2022-09-21T02:05:18;18.00;92.70
56256;DHT22;57229;51.432;-2.598;2022-09-21T02:07:45;18.00;92.70
56256;DHT22;57229;51.432;-2.598;2022-09-21T02:10:16;18.00;92.70
56256;DHT22;57229;51.432;-2.598;2022-09-21T02:12:42;18.00;92.70
56256;DHT22;57229;51.432;-2.598;2022-09-21T02:15:08;18.00;92.70
56256;DHT22;57229;51.432;-2.598;2022-09-21T02:17:46;18.00;92.80
56256;DHT22;57229;51.432;-2.598;2022-09-21T02:20:21;18.00;92.80
56256;DHT22;57229;51.432;-2.598;2022-09-21T02:23:13;17.90;92.70
56256;DHT22;57229;51.432;-2.598;2022-09-21T02:25:51;18.00;92.80
56256;DHT22;57229;51.432;-2.598;2022-09-21T02:31:00;17.90;92.80
56256;DHT22;57229;51.432;-2.598;2022-09-21T02:33:38;17.90;92.80
56256;DHT22;57229;51.432;-2.598;2022-09-21T02:36:21;17.90;92.90
56256;DHT22;57229;51.432;-2.598;2022-09-21T02:39:03;17.90;92.90
56256;DHT22;57229;51.432;-2.598;2022-09-21T02:41:47;17.90;92.90
56256;DHT22;57229;51.432;-2.598;2022-09-21T02:44:20;17.90;92.90
56256;DHT22;57229;51.432;-2.598;2022-09-21T02:47:02;17.90;92.80
56256;DHT22;57229;51.432;-2.598;2022-09-21T02:49:43;17.90;92.90
56256;DHT22;57229;51.432;-2.598;2022-09-21T02:52:13;18.00;92.90
56256;DHT22;57229;51.432;-2.598;2022-09-21T02:54:44;18.00;92.90
56256;DHT22;57229;51.432;-2.598;2022-09-21T02:57:13;17.60;92.80
56256;DHT22;57229;51.432;-2.598;2022-09-21T02:59:41;17.90;92.80
56256;DHT22;57229;51.432;-2.598;2022-09-21T03:02:08;17.90;92.80
56256;DHT22;57229;51.432;-2.598;2022-09-21T03:04:34;18.00;92.70
56256;DHT22;57229;51.432;-2.598;2022-09-21T03:07:00;18.00;92.70
56256;DHT22;57229;51.432;-2.598;2022-09-21T03:09:26;18.00;92.50
56256;DHT22;57229;51.432;-2.598;2022-09-21T03:11:51;18.00;92.50
56256;DHT22;57229;51.432;-2.598;2022-09-21T03:14:17;17.90;92.60
56256;DHT22;57229;51.432;-2.598;2022-09-21T03:16:44;17.90;92.70
56256;DHT22;57229;51.432;-2.598;2022-09-21T03:19:10;17.90;92.70
56256;DHT22;57229;51.432;-2.598;2022-09-21T03:21:36;18.00;92.80
56256;DHT22;57229;51.432;-2.598;2022-09-21T03:24:02;17.90;92.70
56256;DHT22;57229;51.432;-2.598;2022-09-21T03:26:28;18.00;92.80
56256;DHT22;57229;51.432;-2.598;2022-09-21T03:28:54;18.00;92.80
56256;DHT22;57229;51.432;-2.598;2022-09-21T03:31:21;18.00;92.70
56256;DHT22;57229;51.432;-2.598;2022-09-21T03:33:47;18.00;92.70
56256;DHT22;57229;51.432;-2.598;2022-09-21T03:36:12;18.00;92.70
56256;DHT22;57229;51.432;-2.598;2022-09-21T03:38:38;18.00;92.70
56256;DHT22;57229;51.432;-2.598;2022-09-21T03:41:04;18.00;92.60
56256;DHT22;57229;51.432;-2.598;2022-09-21T03:43:30;18.00;92.60
56256;DHT22;57229;51.432;-2.598;2022-09-21T03:45:56;17.20;92.50
56256;DHT22;57229;51.432;-2.598;2022-09-21T03:48:22;18.00;92.70
56256;DHT22;57229;51.432;-2.598;2022-09-21T03:50:48;18.00;92.70
56256;DHT22;57229;51.432;-2.598;2022-09-21T03:53:14;17.90;92.80
56256;DHT22;57229;51.432;-2.598;2022-09-21T03:55:41;17.90;92.80
56256;DHT22;57229;51.432;-2.598;2022-09-21T03:58:07;17.90;92.70
56256;DHT22;57229;51.432;-2.598;2022-09-21T04:00:33;17.90;92.70
56256;DHT22;57229;51.432;-2.598;2022-09-21T04:03:00;17.90;92.70
56256;DHT22;57229;51.432;-2.598;2022-09-21T04:05:26;17.90;92.70
56256;DHT22;57229;51.432;-2.598;2022-09-21T04:07:53;17.90;92.70
56256;DHT22;57229;51.432;-2.598;2022-09-21T04:10:21;17.90;92.70
56256;DHT22;57229;51.432;-2.598;2022-09-21T04:12:56;18.00;92.70
56256;DHT22;57229;51.432;-2.598;2022-09-21T04:15:22;17.90;92.70
56256;DHT22;57229;51.432;-2.598;2022-09-21T04:17:52;17.90;92.80
56256;DHT22;57229;51.432;-2.598;2022-09-21T04:20:18;17.90;92.70
56256;DHT22;57229;51.432;-2.598;2022-09-21T04:22:44;17.90;92.70
56256;DHT22;57229;51.432;-2.598;2022-09-21T04:25:11;17.90;92.70
56256;DHT22;57229;51.432;-2.598;2022-09-21T04:27:37;17.90;92.70
56256;DHT22;57229;51.432;-2.598;2022-09-21T04:30:04;17.90;92.70
56256;DHT22;57229;51.432;-2.598;2022-09-21T04:32:30;17.90;92.70
56256;DHT22;57229;51.432;-2.598;2022-09-21T04:34:55;17.90;92.70
56256;DHT22;57229;51.432;-2.598;2022-09-21T04:37:21;17.90;92.80
56256;DHT22;57229;51.432;-2.598;2022-09-21T04:39:47;17.80;92.70
56256;DHT22;57229;51.432;-2.598;2022-09-21T04:42:13;17.80;92.70
56256;DHT22;57229;51.432;-2.598;2022-09-21T04:44:38;18.50;92.90
56256;DHT22;57229;51.432;-2.598;2022-09-21T04:47:04;17.80;92.60
56256;DHT22;57229;51.432;-2.598;2022-09-21T04:49:30;17.80;92.60
56256;DHT22;57229;51.432;-2.598;2022-09-21T04:51:55;17.70;92.70
56256;DHT22;57229;51.432;-2.598;2022-09-21T04:54:21;17.80;92.70
56256;DHT22;57229;51.432;-2.598;2022-09-21T04:56:47;17.70;92.60
56256;DHT22;57229;51.432;-2.598;2022-09-21T04:59:12;17.60;92.80
56256;DHT22;57229;51.432;-2.598;2022-09-21T05:01:38;17.60;92.50
56256;DHT22;57229;51.432;-2.598;2022-09-21T05:04:04;17.60;92.50
56256;DHT22;57229;51.432;-2.598;2022-09-21T05:06:31;17.50;92.70
56256;DHT22;57229;51.432;-2.598;2022-09-21T05:08:57;17.50;92.60
56256;DHT22;57229;51.432;-2.598;2022-09-21T05:11:52;17.50;93.00
56256;DHT22;57229;51.432;-2.598;2022-09-21T05:14:18;17.40;92.80
56256;DHT22;57229;51.432;-2.598;2022-09-21T05:16:44;17.40;92.90
56256;DHT22;57229;51.432;-2.598;2022-09-21T05:19:12;17.40;92.70
56256;DHT22;57229;51.432;-2.598;2022-09-21T05:21:37;17.30;93.10
56256;DHT22;57229;51.432;-2.598;2022-09-21T05:24:03;17.40;93.20
56256;DHT22;57229;51.432;-2.598;2022-09-21T05:26:29;17.30;92.90
56256;DHT22;57229;51.432;-2.598;2022-09-21T05:28:55;16.20;92.50
56256;DHT22;57229;51.432;-2.598;2022-09-21T05:31:46;17.30;93.00
56256;DHT22;57229;51.432;-2.598;2022-09-21T05:37:09;17.10;93.30
56256;DHT22;57229;51.432;-2.598;2022-09-21T05:39:36;17.10;93.20
56256;DHT22;57229;51.432;-2.598;2022-09-21T05:42:02;17.10;93.20
56256;DHT22;57229;51.432;-2.598;2022-09-21T05:44:28;17.10;92.90
56256;DHT22;57229;51.432;-2.598;2022-09-21T05:47:25;17.10;92.90
56256;DHT22;57229;51.432;-2.598;2022-09-21T05:50:02;17.00;92.80
56256;DHT22;57229;51.432;-2.598;2022-09-21T05:55:56;17.00;93.00
56256;DHT22;57229;51.432;-2.598;2022-09-21T05:58:27;15.80;92.90
56256;DHT22;57229;51.432;-2.598;2022-09-21T06:03:54;17.00;93.20
56256;DHT22;57229;51.432;-2.598;2022-09-21T06:06:20;16.90;92.90
56256;DHT22;57229;51.432;-2.598;2022-09-21T06:08:45;16.90;93.20
56256;DHT22;57229;51.432;-2.598;2022-09-21T06:11:12;16.90;93.20
56256;DHT22;57229;51.432;-2.598;2022-09-21T06:13:38;16.90;93.20
56256;DHT22;57229;51.432;-2.598;2022-09-21T06:16:06;16.90;93.40
56256;DHT22;57229;51.432;-2.598;2022-09-21T06:18:38;16.90;93.30
56256;DHT22;57229;51.432;-2.598;2022-09-21T06:21:05;16.90;93.20
56256;DHT22;57229;51.432;-2.598;2022-09-21T06:23:31;16.90;93.50
56256;DHT22;57229;51.432;-2.598;2022-09-21T06:25:57;16.90;93.10
56256;DHT22;57229;51.432;-2.598;2022-09-21T06:28:23;17.00;93.10
56256;DHT22;57229;51.432;-2.598;2022-09-21T06:30:53;16.90;93.30
56256;DHT22;57229;51.432;-2.598;2022-09-21T06:33:19;17.00;93.50
56256;DHT22;57229;51.432;-2.598;2022-09-21T06:35:58;17.00;93.30
56256;DHT22;57229;51.432;-2.598;2022-09-21T06:38:26;17.00;93.10
56256;DHT22;57229;51.432;-2.598;2022-09-21T06:40:52;17.00;93.50
56256;DHT22;57229;51.432;-2.598;2022-09-21T06:43:18;17.10;93.40
56256;DHT22;57229;51.432;-2.598;2022-09-21T06:45:52;17.00;93.40
56256;DHT22;57229;51.432;-2.598;2022-09-21T06:48:18;17.00;93.40
56256;DHT22;57229;51.432;-2.598;2022-09-21T06:50:44;17.10;93.40
56256;DHT22;57229;51.432;-2.598;2022-09-21T06:53:10;17.10;93.30
56256;DHT22;57229;51.432;-2.598;2022-09-21T06:55:35;17.10;93.30
56256;DHT22;57229;51.432;-2.598;2022-09-21T06:58:02;17.20;93.20
56256;DHT22;57229;51.432;-2.598;2022-09-21T07:00:29;17.20;93.30
56256;DHT22;57229;51.432;-2.598;2022-09-21T07:02:55;17.20;93.20
56256;DHT22;57229;51.432;-2.598;2022-09-21T07:05:20;17.30;93.20
56256;DHT22;57229;51.432;-2.598;2022-09-21T07:07:46;17.20;93.10
56256;DHT22;57229;51.432;-2.598;2022-09-21T07:10:12;17.20;93.10
56256;DHT22;57229;51.432;-2.598;2022-09-21T07:12:37;17.30;93.40
56256;DHT22;57229;51.432;-2.598;2022-09-21T07:15:05;17.30;93.30
56256;DHT22;57229;51.432;-2.598;2022-09-21T07:17:32;17.30;93.20
56256;DHT22;57229;51.432;-2.598;2022-09-21T07:19:58;17.30;93.20
56256;DHT22;57229;51.432;-2.598;2022-09-21T07:22:25;17.40;93.20
56256;DHT22;57229;51.432;-2.598;2022-09-21T07:24:50;17.40;93.40
56256;DHT22;57229;51.432;-2.598;2022-09-21T07:27:16;17.40;93.50
56256;DHT22;57229;51.432;-2.598;2022-09-21T07:29:41;17.40;93.60
56256;DHT22;57229;51.432;-2.598;2022-09-21T07:32:07;17.40;93.70
56256;DHT22;57229;51.432;-2.598;2022-09-21T07:34:34;17.40;93.80
56256;DHT22;57229;51.432;-2.598;2022-09-21T07:37:01;17.50;93.70
56256;DHT22;57229;51.432;-2.598;2022-09-21T07:39:28;17.50;93.70
56256;DHT22;57229;51.432;-2.598;2022-09-21T07:41:54;17.50;93.70
56256;DHT22;57229;51.432;-2.598;2022-09-21T07:44:19;17.50;93.70
56256;DHT22;57229;51.432;-2.598;2022-09-21T07:46:50;17.60;93.70
56256;DHT22;57229;51.432;-2.598;2022-09-21T07:49:16;17.60;93.70
56256;DHT22;57229;51.432;-2.598;2022-09-21T07:51:41;17.70;93.70
56256;DHT22;57229;51.432;-2.598;2022-09-21T07:54:11;17.70;93.60
56256;DHT22;57229;51.432;-2.598;2022-09-21T07:56:37;17.80;93.50
56256;DHT22;57229;51.432;-2.598;2022-09-21T07:59:03;17.90;93.50
56256;DHT22;57229;51.432;-2.598;2022-09-21T08:01:37;17.90;93.60
56256;DHT22;57229;51.432;-2.598;2022-09-21T08:04:05;17.00;93.20
56256;DHT22;57229;51.432;-2.598;2022-09-21T08:06:32;18.00;93.40
56256;DHT22;57229;51.432;-2.598;2022-09-21T08:09:00;18.10;93.40
56256;DHT22;57229;51.432;-2.598;2022-09-21T08:11:27;18.20;93.30
56256;DHT22;57229;51.432;-2.598;2022-09-21T08:13:59;18.30;93.10
56256;DHT22;57229;51.432;-2.598;2022-09-21T08:16:26;18.30;93.90
56256;DHT22;57229;51.432;-2.598;2022-09-21T08:18:52;18.50;94.60
56256;DHT22;57229;51.432;-2.598;2022-09-21T08:21:18;18.50;94.60
56256;DHT22;57229;51.432;-2.598;2022-09-21T08:23:45;18.50;94.40
56256;DHT22;57229;51.432;-2.598;2022-09-21T08:26:17;18.60;94.00
56256;DHT22;57229;51.432;-2.598;2022-09-21T08:28:48;18.60;94.00
56256;DHT22;57229;51.432;-2.598;2022-09-21T08:31:15;18.70;94.00
56256;DHT22;57229;51.432;-2.598;2022-09-21T08:33:42;18.70;94.00
56256;DHT22;57229;51.432;-2.598;2022-09-21T08:36:08;18.80;93.80
56256;DHT22;57229;51.432;-2.598;2022-09-21T08:38:36;18.80;93.60
56256;DHT22;57229;51.432;-2.598;2022-09-21T08:41:12;18.90;93.40
56256;DHT22;57229;51.432;-2.598;2022-09-21T08:43:49;19.00;93.20
56256;DHT22;57229;51.432;-2.598;2022-09-21T08:46:19;19.10;93.00
56256;DHT22;57229;51.432;-2.598;2022-09-21T08:48:58;19.20;92.90
56256;DHT22;57229;51.432;-2.598;2022-09-21T08:51:28;19.20;92.60
56256;DHT22;57229;51.432;-2.598;2022-09-21T08:53:59;19.30;92.30
56256;DHT22;57229;51.432;-2.598;2022-09-21T08:56:28;19.40;92.20
56256;DHT22;57229;51.432;-2.598;2022-09-21T08:58:54;19.50;92.20
56256;DHT22;57229;51.432;-2.598;2022-09-21T09:04:19;19.60;91.80
56256;DHT22;57229;51.432;-2.598;2022-09-21T09:06:51;19.70;91.60
56256;DHT22;57229;51.432;-2.598;2022-09-21T09:20:28;20.10;90.50
56256;DHT22;57229;51.432;-2.598;2022-09-21T09:23:16;20.20;90.40
56256;DHT22;57229;51.432;-2.598;2022-09-21T09:25:49;20.20;90.30
56256;DHT22;57229;51.432;-2.598;2022-09-21T09:28:50;20.30;90.30
56256;DHT22;57229;51.432;-2.598;2022-09-21T09:31:26;20.30;90.50
56256;DHT22;57229;51.432;-2.598;2022-09-21T09:36:47;20.40;90.00
56256;DHT22;57229;51.432;-2.598;2022-09-21T09:39:16;20.30;90.00
56256;DHT22;57229;51.432;-2.598;2022-09-21T09:41:59;20.30;90.00
56256;DHT22;57229;51.432;-2.598;2022-09-21T09:50:17;20.30;90.00
56256;DHT22;57229;51.432;-2.598;2022-09-21T09:52:47;19.80;89.80
56256;DHT22;57229;51.432;-2.598;2022-09-21T09:55:21;20.20;90.00
56256;DHT22;57229;51.432;-2.598;2022-09-21T09:57:49;19.90;89.80
56256;DHT22;57229;51.432;-2.598;2022-09-21T10:00:17;20.20;89.90
56256;DHT22;57229;51.432;-2.598;2022-09-21T10:02:52;20.20;89.90
56256;DHT22;57229;51.432;-2.598;2022-09-21T10:07:45;20.40;89.50
56256;DHT22;57229;51.432;-2.598;2022-09-21T10:10:37;20.50;89.10
56256;DHT22;57229;51.432;-2.598;2022-09-21T10:15:49;20.70;88.30
56256;DHT22;57229;51.432;-2.598;2022-09-21T10:21:04;20.90;88.00
56256;DHT22;57229;51.432;-2.598;2022-09-21T10:23:31;21.40;86.90
56256;DHT22;57229;51.432;-2.598;2022-09-21T10:26:06;21.90;85.30
56256;DHT22;57229;51.432;-2.598;2022-09-21T10:28:32;22.60;83.80
56256;DHT22;57229;51.432;-2.598;2022-09-21T10:33:33;23.40;80.80
56256;DHT22;57229;51.432;-2.598;2022-09-21T10:36:31;23.40;80.70
56256;DHT22;57229;51.432;-2.598;2022-09-21T10:39:19;23.80;79.70
56256;DHT22;57229;51.432;-2.598;2022-09-21T10:44:20;24.40;77.80
56256;DHT22;57229;51.432;-2.598;2022-09-21T10:46:48;24.30;77.50
56256;DHT22;57229;51.432;-2.598;2022-09-21T10:49:35;23.90;78.10
56256;DHT22;57229;51.432;-2.598;2022-09-21T10:52:06;23.70;78.80
56256;DHT22;57229;51.432;-2.598;2022-09-21T10:54:32;24.00;78.40
56256;DHT22;57229;51.432;-2.598;2022-09-21T10:57:06;24.40;77.40
56256;DHT22;57229;51.432;-2.598;2022-09-21T10:59:35;24.80;76.50
56256;DHT22;57229;51.432;-2.598;2022-09-21T11:04:52;25.30;74.70
56256;DHT22;57229;51.432;-2.598;2022-09-21T11:10:06;25.00;75.00
56256;DHT22;57229;51.432;-2.598;2022-09-21T11:18:12;25.60;73.80
56256;DHT22;57229;51.432;-2.598;2022-09-21T11:22:05;25.80;73.30
56256;DHT22;57229;51.432;-2.598;2022-09-21T11:27:41;25.90;72.90
56256;DHT22;57229;51.432;-2.598;2022-09-21T11:30:13;25.80;72.80
56256;DHT22;57229;51.432;-2.598;2022-09-21T11:38:12;25.40;73.80
56256;DHT22;57229;51.432;-2.598;2022-09-21T11:50:02;24.20;76.40
56256;DHT22;57229;51.432;-2.598;2022-09-21T11:52:45;23.90;76.70
56256;DHT22;57229;51.432;-2.598;2022-09-21T11:55:21;23.70;77.70
56256;DHT22;57229;51.432;-2.598;2022-09-21T12:12:37;23.30;76.80
56256;DHT22;57229;51.432;-2.598;2022-09-21T12:15:17;23.70;77.10
56256;DHT22;57229;51.432;-2.598;2022-09-21T12:17:50;23.70;77.50
56256;DHT22;57229;51.432;-2.598;2022-09-21T12:22:51;23.80;77.20
56256;DHT22;57229;51.432;-2.598;2022-09-21T12:25:26;23.90;77.00
56256;DHT22;57229;51.432;-2.598;2022-09-21T12:28:04;23.90;76.80
56256;DHT22;57229;51.432;-2.598;2022-09-21T12:30:31;23.90;76.50
56256;DHT22;57229;51.432;-2.598;2022-09-21T12:33:09;23.80;76.70
56256;DHT22;57229;51.432;-2.598;2022-09-21T12:35:41;23.80;76.60
56256;DHT22;57229;51.432;-2.598;2022-09-21T12:38:15;23.70;77.20
56256;DHT22;57229;51.432;-2.598;2022-09-21T12:40:51;23.70;77.20
56256;DHT22;57229;51.432;-2.598;2022-09-21T12:46:21;23.90;76.90
56256;DHT22;57229;51.432;-2.598;2022-09-21T12:48:48;23.80;76.90
56256;DHT22;57229;51.432;-2.598;2022-09-21T12:51:33;23.80;76.80
56256;DHT22;57229;51.432;-2.598;2022-09-21T12:54:06;23.60;77.40
56256;DHT22;57229;51.432;-2.598;2022-09-21T12:56:43;23.40;77.90
56256;DHT22;57229;51.432;-2.598;2022-09-21T12:59:23;23.20;78.40
56256;DHT22;57229;51.432;-2.598;2022-09-21T13:04:48;22.90;79.50
56256;DHT22;57229;51.432;-2.598;2022-09-21T13:09:58;22.60;80.20
56256;DHT22;57229;51.432;-2.598;2022-09-21T13:12:30;22.50;80.60
56256;DHT22;57229;51.432;-2.598;2022-09-21T13:15:16;22.40;80.90
56256;DHT22;57229;51.432;-2.598;2022-09-21T13:17:43;22.30;81.40
56256;DHT22;57229;51.432;-2.598;2022-09-21T13:20:17;22.40;81.60
56256;DHT22;57229;51.432;-2.598;2022-09-21T13:22:44;22.60;81.20
56256;DHT22;57229;51.432;-2.598;2022-09-21T13:25:19;22.80;80.90
56256;DHT22;57229;51.432;-2.598;2022-09-21T13:30:47;23.20;79.70
56256;DHT22;57229;51.432;-2.598;2022-09-21T13:41:24;23.30;78.70
56256;DHT22;57229;51.432;-2.598;2022-09-21T13:49:38;23.60;78.80
56256;DHT22;57229;51.432;-2.598;2022-09-21T14:02:32;24.10;77.40
56256;DHT22;57229;51.432;-2.598;2022-09-21T14:08:38;23.90;77.80
56256;DHT22;57229;51.432;-2.598;2022-09-21T14:10:52;23.80;78.70
56256;DHT22;57229;51.432;-2.598;2022-09-21T14:13:47;23.60;78.50
56256;DHT22;57229;51.432;-2.598;2022-09-21T14:24:43;24.00;77.90
56256;DHT22;57229;51.432;-2.598;2022-09-21T14:29:52;24.20;77.30
56256;DHT22;57229;51.432;-2.598;2022-09-21T14:32:22;24.10;77.60
56256;DHT22;57229;51.432;-2.598;2022-09-21T14:34:59;23.90;78.00
56256;DHT22;57229;51.432;-2.598;2022-09-21T14:37:33;23.70;78.40
56256;DHT22;57229;51.432;-2.598;2022-09-21T14:40:05;23.50;78.90
56256;DHT22;57229;51.432;-2.598;2022-09-21T14:42:31;23.40;79.30
56256;DHT22;57229;51.432;-2.598;2022-09-21T14:45:00;23.40;79.20
56256;DHT22;57229;51.432;-2.598;2022-09-21T14:50:29;23.20;79.60
56256;DHT22;57229;51.432;-2.598;2022-09-21T14:58:39;22.70;80.90
56256;DHT22;57229;51.432;-2.598;2022-09-21T15:04:22;22.40;81.70
56256;DHT22;57229;51.432;-2.598;2022-09-21T15:10:25;22.40;82.20
56256;DHT22;57229;51.432;-2.598;2022-09-21T15:13:38;22.50;82.20
56256;DHT22;57229;51.432;-2.598;2022-09-21T15:16:25;22.60;81.80
56256;DHT22;57229;51.432;-2.598;2022-09-21T15:19:04;22.80;81.40
56256;DHT22;57229;51.432;-2.598;2022-09-21T15:21:35;22.90;81.00
56256;DHT22;57229;51.432;-2.598;2022-09-21T15:26:42;23.10;80.50
56256;DHT22;57229;51.432;-2.598;2022-09-21T15:29:19;23.00;80.60
56256;DHT22;57229;51.432;-2.598;2022-09-21T15:31:46;22.90;80.80
56256;DHT22;57229;51.432;-2.598;2022-09-21T15:34:12;24.20;82.00
56256;DHT22;57229;51.432;-2.598;2022-09-21T15:36:40;22.70;81.40
56256;DHT22;57229;51.432;-2.598;2022-09-21T15:39:27;22.60;81.70
56256;DHT22;57229;51.432;-2.598;2022-09-21T15:42:19;22.50;82.00
56256;DHT22;57229;51.432;-2.598;2022-09-21T15:44:48;22.30;82.30
56256;DHT22;57229;51.432;-2.598;2022-09-21T15:47:21;22.20;82.50
56256;DHT22;57229;51.432;-2.598;2022-09-21T15:49:48;22.10;82.70
56256;DHT22;57229;51.432;-2.598;2022-09-21T15:55:04;22.10;82.80
56256;DHT22;57229;51.432;-2.598;2022-09-21T15:57:34;22.30;82.60
56256;DHT22;57229;51.432;-2.598;2022-09-21T16:02:36;22.60;81.70
56256;DHT22;57229;51.432;-2.598;2022-09-21T16:05:04;22.80;81.50
56256;DHT22;57229;51.432;-2.598;2022-09-21T16:07:38;23.00;80.90
56256;DHT22;57229;51.432;-2.598;2022-09-21T16:13:19;23.00;80.70
56256;DHT22;57229;51.432;-2.598;2022-09-21T16:16:11;22.90;80.80
56256;DHT22;57229;51.432;-2.598;2022-09-21T16:18:48;22.80;81.00
56256;DHT22;57229;51.432;-2.598;2022-09-21T16:21:21;22.70;81.30
56256;DHT22;57229;51.432;-2.598;2022-09-21T16:23:48;22.70;81.50
56256;DHT22;57229;51.432;-2.598;2022-09-21T16:26:23;22.70;81.50
56256;DHT22;57229;51.432;-2.598;2022-09-21T16:28:57;22.70;81.40
56256;DHT22;57229;51.432;-2.598;2022-09-21T16:31:27;22.70;81.40
56256;DHT22;57229;51.432;-2.598;2022-09-21T16:38:47;22.60;81.70
56256;DHT22;57229;51.432;-2.598;2022-09-21T16:41:14;22.50;81.80
56256;DHT22;57229;51.432;-2.598;2022-09-21T16:43:41;22.50;81.90
56256;DHT22;57229;51.432;-2.598;2022-09-21T16:46:11;22.50;82.00
56256;DHT22;57229;51.432;-2.598;2022-09-21T16:48:38;22.50;82.20
56256;DHT22;57229;51.432;-2.598;2022-09-21T16:51:15;21.00;81.50
56256;DHT22;57229;51.432;-2.598;2022-09-21T16:53:46;22.40;82.30
56256;DHT22;57229;51.432;-2.598;2022-09-21T16:56:13;22.30;82.40
56256;DHT22;57229;51.432;-2.598;2022-09-21T16:58:39;22.30;82.60
56256;DHT22;57229;51.432;-2.598;2022-09-21T17:01:10;22.20;82.90
56256;DHT22;57229;51.432;-2.598;2022-09-21T17:03:40;22.10;82.90
56256;DHT22;57229;51.432;-2.598;2022-09-21T17:06:16;22.10;83.20
56256;DHT22;57229;51.432;-2.598;2022-09-21T17:08:43;22.00;83.10
56256;DHT22;57229;51.432;-2.598;2022-09-21T17:11:10;22.00;83.40
56256;DHT22;57229;51.432;-2.598;2022-09-21T17:13:36;21.90;83.60
56256;DHT22;57229;51.432;-2.598;2022-09-21T17:16:02;21.90;83.70
56256;DHT22;57229;51.432;-2.598;2022-09-21T17:18:28;21.80;83.80
56256;DHT22;57229;51.432;-2.598;2022-09-21T17:20:53;21.90;83.90
56256;DHT22;57229;51.432;-2.598;2022-09-21T17:23:19;21.80;84.00
56256;DHT22;57229;51.432;-2.598;2022-09-21T17:25:44;21.80;84.20
56256;DHT22;57229;51.432;-2.598;2022-09-21T17:28:22;21.80;84.10
56256;DHT22;57229;51.432;-2.598;2022-09-21T17:30:53;21.70;84.00
56256;DHT22;57229;51.432;-2.598;2022-09-21T17:33:19;21.70;84.60
56256;DHT22;57229;51.432;-2.598;2022-09-21T17:35:46;21.60;84.50
56256;DHT22;57229;51.432;-2.598;2022-09-21T17:38:12;21.60;84.70
56256;DHT22;57229;51.432;-2.598;2022-09-21T17:40:39;21.60;85.20
56256;DHT22;57229;51.432;-2.598;2022-09-21T17:46:20;21.20;85.80
56256;DHT22;57229;51.432;-2.598;2022-09-21T17:48:47;21.60;85.70
56256;DHT22;57229;51.432;-2.598;2022-09-21T17:51:13;21.40;85.50
56256;DHT22;57229;51.432;-2.598;2022-09-21T17:53:59;21.40;85.40
56256;DHT22;57229;51.432;-2.598;2022-09-21T17:56:38;21.40;85.40
56256;DHT22;57229;51.432;-2.598;2022-09-21T17:59:07;20.20;84.70
56256;DHT22;57229;51.432;-2.598;2022-09-21T18:01:42;21.40;85.60
56256;DHT22;57229;51.432;-2.598;2022-09-21T18:04:09;21.30;85.70
56256;DHT22;57229;51.432;-2.598;2022-09-21T18:06:37;21.30;85.60
56256;DHT22;57229;51.432;-2.598;2022-09-21T18:09:04;21.30;85.80
56256;DHT22;57229;51.432;-2.598;2022-09-21T18:22:57;21.20;85.70
56256;DHT22;57229;51.432;-2.598;2022-09-21T18:27:57;21.10;85.30
56256;DHT22;57229;51.432;-2.598;2022-09-21T18:30:24;21.00;84.90
56256;DHT22;57229;51.432;-2.598;2022-09-21T18:35:49;21.00;85.50
56256;DHT22;57229;51.432;-2.598;2022-09-21T18:38:30;21.00;85.20
56256;DHT22;57229;51.432;-2.598;2022-09-21T18:44:28;21.00;84.10
56256;DHT22;57229;51.432;-2.598;2022-09-21T18:47:16;20.90;84.80
56256;DHT22;57229;51.432;-2.598;2022-09-21T18:52:38;20.80;84.10
56256;DHT22;57229;51.432;-2.598;2022-09-21T18:55:23;20.80;85.00
56256;DHT22;57229;51.432;-2.598;2022-09-21T18:57:53;20.80;84.60
56256;DHT22;57229;51.432;-2.598;2022-09-21T19:00:25;20.70;85.00
56256;DHT22;57229;51.432;-2.598;2022-09-21T19:03:10;20.70;84.60
56256;DHT22;57229;51.432;-2.598;2022-09-21T19:05:38;20.60;85.40
56256;DHT22;57229;51.432;-2.598;2022-09-21T19:11:15;20.60;85.90
56256;DHT22;57229;51.432;-2.598;2022-09-21T19:22:03;20.40;85.40
56256;DHT22;57229;51.432;-2.598;2022-09-21T19:24:44;20.40;85.30